Terminal Aerodrome Forecast
Issued by NWS

Home | Current Version | Previous Version | Text Only | Print | Product List | Glossary Off
Versions: 1 2 3 4 5 6 7 8 9 10 11 12 13 14 15 16 17 18 19 20 21 22 23 24 25 26 27 28 29 30

000
FTUS43 KGRB 012338
TAFRHI
TAF
KRHI 012338Z 0200/0224 31005KT P6SM SCT015 OVC030
      TEMPO 0200/0204 -SN BKN015
     FM020400 31005KT P6SM -SN SCT008 BKN015
     FM021800 31006KT P6SM OVC015=

USA.gov is the U.S. government's official web portal to all federal, state and local government web resources and services.